Time;durP1;ratioP1;P1;durP2;ratioP2;P2;SDS_P1;SDS_P2;PMS_P1;PMS_P2;Temp;Humidity;BMP_temperature;BMP_pressure;BME280_temperature;BME280_humidity;BME280_pressure;Samples;Min_cycle;Max_cycle;Signal;HPM_P1;HPM_P2
2023/05/23 00:02:08;;;;;;;;;;;;;;;15.56;98.52;96336.53;5051405;28;19956;-78
2023/05/23 00:04:37;;;;;;;;;;;;;;;15.52;98.27;96338.06;5051216;28;19992;-79
2023/05/23 00:07:03;;;;;;;;;;;;;;;15.50;98.80;96340.16;5051423;28;19959;-73
2023/05/23 00:09:29;;;;;;;;;;;;;;;15.48;99.17;96339.63;5051165;28;20205;-70
2023/05/23 00:11:55;;;;;;;;;;;;;;;15.47;99.56;96337.22;4984143;28;20006;-70
2023/05/23 00:14:22;;;;;;;;;;;;;;;15.46;99.74;96333.00;5034900;28;20301;-70
2023/05/23 00:16:48;;;;;;;;;;;;;;;15.45;99.96;96331.38;4984456;28;19958;-70
2023/05/23 00:19:14;;;;;;;;;;;;;;;15.45;100.00;96332.19;5051243;28;19955;-71
2023/05/23 00:21:47;;;;;;;;;;;;;;;15.43;100.00;96329.81;4983928;28;19967;-70
2023/05/23 00:24:13;;;;;;;;;;;;;;;15.40;100.00;96329.50;4984444;28;19977;-72
2023/05/23 00:26:39;;;;;;;;;;;;;;;15.37;100.00;96317.59;5034694;28;19976;-72
2023/05/23 00:29:05;;;;;;;;;;;;;;;15.40;100.00;96322.38;4984132;28;20132;-73
2023/05/23 00:31:31;;;;;;;;;;;;;;;15.41;100.00;96321.34;5050513;28;20027;-73
2023/05/23 00:33:56;;;;;;;;;;;;;;;15.43;100.00;96327.16;4984000;28;19951;-73
2023/05/23 00:36:22;;;;;;;;;;;;;;;15.46;100.00;96328.50;4983937;28;20266;-73
2023/05/23 00:38:48;;;;;;;;;;;;;;;15.47;100.00;96332.72;4983931;28;19952;-72
2023/05/23 00:41:14;;;;;;;;;;;;;;;15.47;100.00;96329.28;4983640;28;19966;-73
2023/05/23 00:43:40;;;;;;;;;;;;;;;15.48;100.00;96334.34;4983958;28;19956;-77
2023/05/23 00:46:06;;;;;;;;;;;;;;;15.50;100.00;96331.44;5050316;28;19969;-70
2023/05/23 00:48:32;;;;;;;;;;;;;;;15.49;100.00;96330.63;5050452;28;20245;-70
2023/05/23 00:50:58;;;;;;;;;;;;;;;15.47;100.00;96337.22;4983893;28;19963;-70
2023/05/23 00:53:25;;;;;;;;;;;;;;;15.46;100.00;96349.66;4983143;28;19954;-70
2023/05/23 00:55:51;;;;;;;;;;;;;;;15.43;100.00;96350.13;4983553;28;19961;-70
2023/05/23 00:58:17;;;;;;;;;;;;;;;15.37;100.00;96340.56;5050037;28;19964;-71
2023/05/23 01:00:46;;;;;;;;;;;;;;;15.30;100.00;96348.69;4983547;28;19966;-70
2023/05/23 01:03:16;;;;;;;;;;;;;;;15.26;100.00;96346.81;4983558;28;20258;-78
2023/05/23 01:05:43;;;;;;;;;;;;;;;15.18;100.00;96346.22;4983569;28;20123;-78
2023/05/23 01:08:09;;;;;;;;;;;;;;;15.15;100.00;96346.72;4983575;28;19945;-78
2023/05/23 01:10:35;;;;;;;;;;;;;;;15.11;100.00;96350.88;4982952;28;19972;-78
2023/05/23 01:13:19;;;;;;;;;;;;;;;15.08;100.00;96359.31;4983214;28;19952;-79
2023/05/23 01:15:51;;;;;;;;;;;;;;;15.05;100.00;96357.16;4983387;28;19966;-78
2023/05/23 01:18:23;;;;;;;;;;;;;;;15.04;100.00;96360.06;4983124;28;19971;-78
2023/05/23 01:20:56;;;;;;;;;;;;;;;15.02;100.00;96362.97;4983498;28;20140;-78
2023/05/23 01:23:27;;;;;;;;;;;;;;;14.99;100.00;96358.16;4983261;28;19950;-79
2023/05/23 01:26:12;;;;;;;;;;;;;;;14.97;100.00;96354.97;5049892;28;19961;-78
2023/05/23 01:28:44;;;;;;;;;;;;;;;14.92;100.00;96355.72;5050325;28;20273;-79
2023/05/23 01:31:10;;;;;;;;;;;;;;;14.91;100.00;96359.41;4982941;28;19955;-79
2023/05/23 01:33:37;;;;;;;;;;;;;;;14.88;100.00;96364.38;4983298;28;19964;-79
2023/05/23 01:36:03;;;;;;;;;;;;;;;14.86;100.00;96367.25;5049557;28;20256;-79
2023/05/23 01:38:29;;;;;;;;;;;;;;;14.84;100.00;96360.63;4982895;28;20148;-78
2023/05/23 01:40:55;;;;;;;;;;;;;;;14.81;100.00;96364.56;4983139;28;19963;-77
2023/05/23 01:43:21;;;;;;;;;;;;;;;14.80;100.00;96363.78;4982428;28;20165;-79
2023/05/23 01:45:48;;;;;;;;;;;;;;;14.80;100.00;96365.59;4983082;28;19960;-78
2023/05/23 01:48:14;;;;;;;;;;;;;;;14.80;100.00;96368.25;4982941;28;19959;-78
2023/05/23 01:50:44;;;;;;;;;;;;;;;14.80;100.00;96371.69;4982805;28;19961;-78
2023/05/23 01:53:11;;;;;;;;;;;;;;;14.81;100.00;96381.19;4982845;28;19948;-78
2023/05/23 01:55:37;;;;;;;;;;;;;;;14.84;100.00;96385.19;4982275;28;19982;-78
2023/05/23 01:58:03;;;;;;;;;;;;;;;14.85;100.00;96375.44;4982840;28;19952;-76
2023/05/23 02:00:29;;;;;;;;;;;;;;;14.86;100.00;96375.19;4982952;28;20209;-79
2023/05/23 02:02:55;;;;;;;;;;;;;;;14.87;100.00;96376.00;5049454;28;19959;-79
2023/05/23 02:05:21;;;;;;;;;;;;;;;14.90;100.00;96378.13;4982827;28;20005;-79
2023/05/23 02:07:47;;;;;;;;;;;;;;;14.90;100.00;96375.50;5049407;28;19955;-79
2023/05/23 02:10:13;;;;;;;;;;;;;;;14.90;100.00;96378.13;4982741;28;19963;-80
2023/05/23 02:12:39;;;;;;;;;;;;;;;14.91;100.00;96383.19;4982562;28;20022;-79
2023/05/23 02:15:05;;;;;;;;;;;;;;;14.95;100.00;96375.53;4982740;28;19965;-78
2023/05/23 02:17:31;;;;;;;;;;;;;;;14.95;100.00;96372.91;5033278;28;19967;-76
2023/05/23 02:19:56;;;;;;;;;;;;;;;14.97;100.00;96362.88;4982514;28;20022;-76
2023/05/23 02:22:26;;;;;;;;;;;;;;;14.98;100.00;96365.28;5049629;28;19958;-77
2023/05/23 02:24:52;;;;;;;;;;;;;;;14.99;100.00;96363.44;4982504;28;20153;-76
2023/05/23 02:27:18;;;;;;;;;;;;;;;15.01;100.00;96366.63;4982673;28;19993;-76
2023/05/23 02:29:43;;;;;;;;;;;;;;;15.02;100.00;96368.25;4982044;28;19965;-76
2023/05/23 02:32:09;;;;;;;;;;;;;;;15.02;100.00;96371.66;5048889;28;20126;-76
2023/05/23 02:34:37;;;;;;;;;;;;;;;15.03;100.00;96372.47;4982070;28;20014;-70
2023/05/23 02:37:03;;;;;;;;;;;;;;;15.03;100.00;96380.38;4982179;28;19954;-73
2023/05/23 02:39:28;;;;;;;;;;;;;;;15.03;100.00;96372.47;5048789;28;20039;-73
2023/05/23 02:41:54;;;;;;;;;;;;;;;15.02;100.00;96370.88;4982321;28;19961;-73
2023/05/23 02:44:20;;;;;;;;;;;;;;;15.01;100.00;96387.75;4982287;28;19960;-73
2023/05/23 02:46:46;;;;;;;;;;;;;;;15.01;100.00;96377.19;4982304;28;20027;-72
2023/05/23 02:49:12;;;;;;;;;;;;;;;15.03;100.00;96372.47;4982148;28;19976;-73
2023/05/23 02:51:38;;;;;;;;;;;;;;;15.05;100.00;96372.22;5032415;28;20130;-78
2023/05/23 02:54:04;;;;;;;;;;;;;;;15.06;100.00;96371.19;4982413;28;19954;-72
2023/05/23 02:56:29;;;;;;;;;;;;;;;15.07;100.00;96370.13;5049407;28;20195;-79
2023/05/23 02:58:55;;;;;;;;;;;;;;;14.99;100.00;96366.91;5049077;28;19969;-78
2023/05/23 03:01:22;;;;;;;;;;;;;;;14.98;100.00;96367.94;4981872;28;19963;-80
2023/05/23 03:03:47;;;;;;;;;;;;;;;14.98;100.00;96369.78;5032192;28;20284;-79
2023/05/23 03:06:15;;;;;;;;;;;;;;;14.98;100.00;96372.41;4982104;28;19958;-80
2023/05/23 03:08:42;;;;;;;;;;;;;;;14.98;100.00;96373.22;4982038;28;19957;-80
2023/05/23 03:11:08;;;;;;;;;;;;;;;15.00;100.00;96372.97;4984494;28;19969;-76
2023/05/23 03:13:34;;;;;;;;;;;;;;;15.01;100.00;96372.72;4985258;28;20235;-73
2023/05/23 03:16:00;;;;;;;;;;;;;;;15.02;100.00;96365.59;5052400;28;19957;-73
2023/05/23 03:18:26;;;;;;;;;;;;;;;15.03;100.00;96367.19;5052136;28;20223;-73
2023/05/23 03:20:52;;;;;;;;;;;;;;;15.04;100.00;96373.28;5052598;28;19946;-73
2023/05/23 03:23:18;;;;;;;;;;;;;;;15.06;100.00;96368.56;4985107;28;20030;-73
2023/05/23 03:25:43;;;;;;;;;;;;;;;15.07;100.00;96373.56;4985289;28;19958;-73
2023/05/23 03:28:11;;;;;;;;;;;;;;;15.09;100.00;96378.59;5052322;28;20009;-83
2023/05/23 03:30:37;;;;;;;;;;;;;;;15.10;100.00;96381.00;4985148;28;19966;-76
2023/05/23 03:33:03;;;;;;;;;;;;;;;15.12;100.00;96386.84;4984929;28;19968;-73
2023/05/23 03:35:29;;;;;;;;;;;;;;;15.14;100.00;96386.56;5051935;28;19954;-72
2023/05/23 03:37:54;;;;;;;;;;;;;;;15.15;100.00;96391.63;5051844;28;19967;-72
2023/05/23 03:40:20;;;;;;;;;;;;;;;15.17;100.00;96392.16;5052024;28;20043;-72
2023/05/23 03:42:47;;;;;;;;;;;;;;;15.18;100.00;96387.66;4984773;28;19969;-72
2023/05/23 03:45:13;;;;;;;;;;;;;;;15.20;100.00;96388.22;4984854;28;19959;-72
2023/05/23 03:47:38;;;;;;;;;;;;;;;15.21;100.00;96392.47;4984684;28;19959;-80
2023/05/23 03:50:05;;;;;;;;;;;;;;;15.23;100.00;96393.81;4984096;28;19956;-73
2023/05/23 03:52:30;;;;;;;;;;;;;;;15.23;100.00;96390.38;5051798;28;19973;-73
2023/05/23 03:54:56;;;;;;;;;;;;;;;15.21;100.00;96390.63;5051698;28;19962;-73
2023/05/23 03:57:22;;;;;;;;;;;;;;;15.22;100.00;96389.59;5051648;28;19963;-74
2023/05/23 03:59:48;;;;;;;;;;;;;;;15.21;100.00;96387.97;5051268;28;19962;-73
2023/05/23 04:02:14;;;;;;;;;;;;;;;15.22;100.00;96386.13;4984204;28;19951;-73
2023/05/23 04:04:40;;;;;;;;;;;;;;;15.25;100.00;96382.22;4984595;28;19967;-73
2023/05/23 04:07:08;;;;;;;;;;;;;;;15.27;100.00;96385.41;5051151;28;20144;-71
2023/05/23 04:09:33;;;;;;;;;;;;;;;15.29;100.00;96392.03;5051080;28;20158;-73
2023/05/23 04:11:59;;;;;;;;;;;;;;;15.30;100.00;96384.91;5034100;28;19960;-73
2023/05/23 04:14:26;;;;;;;;;;;;;;;15.32;100.00;96391.53;4984357;28;19962;-73
2023/05/23 04:16:52;;;;;;;;;;;;;;;15.32;100.00;96388.88;4984326;28;19961;-73
2023/05/23 04:19:18;;;;;;;;;;;;;;;15.35;100.00;96390.22;5051111;28;19964;-73
2023/05/23 04:21:44;;;;;;;;;;;;;;;15.36;100.00;96387.34;5049834;28;19966;-73
2023/05/23 04:24:10;;;;;;;;;;;;;;;15.37;100.00;96388.13;5051160;28;19996;-73
2023/05/23 04:26:36;;;;;;;;;;;;;;;15.37;100.00;96391.59;4984198;28;19962;-83
2023/05/23 04:29:02;;;;;;;;;;;;;;;15.37;100.00;96386.31;4983777;28;19960;-82
2023/05/23 04:31:28;;;;;;;;;;;;;;;15.40;100.00;96390.28;4984081;28;19980;-82
2023/05/23 04:33:55;;;;;;;;;;;;;;;15.43;100.00;96384.50;4983805;28;19956;-82
2023/05/23 04:36:22;;;;;;;;;;;;;;;15.46;100.00;96391.94;4983808;28;19963;-82
2023/05/23 04:38:48;;;;;;;;;;;;;;;15.48;100.00;96389.03;4983867;28;19964;-83
2023/05/23 04:41:15;;;;;;;;;;;;;;;15.51;100.00;96393.81;4983347;28;19957;-83
2023/05/23 04:43:41;;;;;;;;;;;;;;;15.52;100.00;96388.28;5050566;28;19966;-76
2023/05/23 04:46:10;;;;;;;;;;;;;;;15.55;100.00;96408.91;4983839;28;20263;-73
2023/05/23 04:48:37;;;;;;;;;;;;;;;15.56;100.00;96401.78;5050880;28;19956;-73
2023/05/23 04:51:10;;;;;;;;;;;;;;;15.56;100.00;96410.53;5034307;28;19975;-75
2023/05/23 04:53:36;;;;;;;;;;;;;;;15.55;100.00;96414.22;4983690;28;19959;-72
2023/05/23 04:56:02;;;;;;;;;;;;;;;15.56;100.00;96409.72;5049744;28;19967;-73
2023/05/23 04:58:27;;;;;;;;;;;;;;;15.54;100.00;96417.91;5050630;28;19965;-73
2023/05/23 05:00:53;;;;;;;;;;;;;;;15.51;100.00;96418.41;5033982;28;19969;-78
2023/05/23 05:03:19;;;;;;;;;;;;;;;15.47;100.00;96419.94;5050517;28;19962;-77
2023/05/23 05:05:45;;;;;;;;;;;;;;;15.47;100.00;96422.59;4983453;28;19956;-76
2023/05/23 05:08:13;;;;;;;;;;;;;;;15.47;100.00;96430.50;5033335;28;19983;-76
2023/05/23 05:10:39;;;;;;;;;;;;;;;15.49;100.00;96419.69;5050083;28;19974;-76
2023/05/23 05:13:05;;;;;;;;;;;;;;;15.49;100.00;96425.78;5033614;28;19964;-77
2023/05/23 05:15:31;;;;;;;;;;;;;;;15.51;100.00;96436.09;4982848;28;19955;-77
2023/05/23 05:17:56;;;;;;;;;;;;;;;15.50;100.00;96431.88;4983357;28;20096;-77
2023/05/23 05:20:22;;;;;;;;;;;;;;;15.49;100.00;96436.34;5050247;28;19967;-73
2023/05/23 05:22:53;;;;;;;;;;;;;;;15.49;100.00;96425.78;5032983;28;20204;-78
2023/05/23 05:25:19;;;;;;;;;;;;;;;15.46;100.00;96434.22;5050272;28;19967;-79
2023/05/23 05:27:45;;;;;;;;;;;;;;;15.46;100.00;96438.72;4983042;28;19957;-78
2023/05/23 05:30:11;;;;;;;;;;;;;;;15.46;100.00;96441.34;5049773;28;19968;-79
2023/05/23 05:32:37;;;;;;;;;;;;;;;15.47;100.00;96445.56;5049562;28;19963;-78
2023/05/23 05:35:03;;;;;;;;;;;;;;;15.47;100.00;96438.44;4983176;28;20008;-78
2023/05/23 05:37:29;;;;;;;;;;;;;;;15.50;100.00;96437.16;4983101;28;19959;-70
2023/05/23 05:39:55;;;;;;;;;;;;;;;15.51;100.00;96444.03;5049704;28;19967;-72
2023/05/23 05:42:21;;;;;;;;;;;;;;;15.51;100.00;96441.38;4983144;28;19959;-81
2023/05/23 05:44:48;;;;;;;;;;;;;;;15.51;100.00;96446.69;5049533;28;20025;-80
2023/05/23 05:47:14;;;;;;;;;;;;;;;15.51;100.00;96452.75;4983050;28;19945;-81
2023/05/23 05:49:40;;;;;;;;;;;;;;;15.53;100.00;96447.22;4982727;28;19968;-81
2023/05/23 05:52:07;;;;;;;;;;;;;;;15.56;100.00;96449.34;4983197;28;19956;-82
2023/05/23 05:54:33;;;;;;;;;;;;;;;15.59;100.00;96443.59;4982943;28;19963;-82
2023/05/23 05:56:59;;;;;;;;;;;;;;;15.61;100.00;96444.13;5049771;28;19964;-70
2023/05/23 05:59:24;;;;;;;;;;;;;;;15.61;100.00;96449.44;5049712;28;19963;-72
2023/05/23 06:01:51;;;;;;;;;;;;;;;15.60;100.00;96448.63;4982848;28;19957;-72
2023/05/23 06:04:17;;;;;;;;;;;;;;;15.61;100.00;96449.44;5049056;28;19976;-74
2023/05/23 06:06:43;;;;;;;;;;;;;;;15.53;100.00;96440.09;4982815;28;19969;-72
2023/05/23 06:09:09;;;;;;;;;;;;;;;15.49;100.00;96446.13;4982637;28;19986;-72
2023/05/23 06:11:39;;;;;;;;;;;;;;;15.46;100.00;96452.72;4982566;28;19965;-72
2023/05/23 06:14:05;;;;;;;;;;;;;;;15.48;100.00;96450.63;4982635;28;19962;-72
2023/05/23 06:16:31;;;;;;;;;;;;;;;15.50;100.00;96461.75;4982784;28;20266;-83
2023/05/23 06:18:57;;;;;;;;;;;;;;;15.57;100.00;96458.91;4982507;28;19970;-73
2023/05/23 06:21:23;;;;;;;;;;;;;;;15.67;100.00;96463.50;4982620;28;19964;-73
2023/05/23 06:23:49;;;;;;;;;;;;;;;15.69;100.00;96461.41;5032499;28;19956;-73
2023/05/23 06:26:15;;;;;;;;;;;;;;;15.73;100.00;96462.53;5049534;28;19967;-73
2023/05/23 06:28:41;;;;;;;;;;;;;;;15.71;100.00;96467.25;5048955;28;19969;-73
2023/05/23 06:31:08;;;;;;;;;;;;;;;15.66;100.00;96461.88;5049032;28;19967;-73
2023/05/23 06:33:35;;;;;;;;;;;;;;;15.63;100.00;96466.63;5049920;28;19957;-76
2023/05/23 06:36:01;;;;;;;;;;;;;;;15.65;100.00;96470.88;5049075;28;19963;-78
2023/05/23 06:38:28;;;;;;;;;;;;;;;15.58;100.00;96463.94;5049105;28;19958;-78
2023/05/23 06:40:54;;;;;;;;;;;;;;;15.54;100.00;96475.25;5049068;28;19960;-78
2023/05/23 06:43:20;;;;;;;;;;;;;;;15.52;100.00;96475.50;4982314;28;19980;-78
2023/05/23 06:45:46;;;;;;;;;;;;;;;15.54;100.00;96472.59;4984339;28;19947;-78
2023/05/23 06:48:12;;;;;;;;;;;;;;;15.58;100.00;96481.63;4985667;28;19991;-78
2023/05/23 06:50:39;;;;;;;;;;;;;;;15.58;100.00;96479.81;5053060;28;20002;-70
2023/05/23 06:53:05;;;;;;;;;;;;;;;15.57;100.00;96478.19;5052820;28;19964;-78
2023/05/23 06:55:32;;;;;;;;;;;;;;;15.57;100.00;96482.69;5035897;28;20152;-76
2023/05/23 06:57:59;;;;;;;;;;;;;;;15.56;100.00;96479.25;4985548;28;19959;-76
2023/05/23 07:00:24;;;;;;;;;;;;;;;15.58;100.00;96476.34;5036150;28;19964;-76
2023/05/23 07:02:50;;;;;;;;;;;;;;;15.63;100.00;96489.63;4985552;28;20141;-76
2023/05/23 07:05:16;;;;;;;;;;;;;;;15.65;100.00;96492.03;5052387;28;19952;-76
2023/05/23 07:07:42;;;;;;;;;;;;;;;15.65;100.00;96487.53;4985456;28;19957;-76
2023/05/23 07:10:09;;;;;;;;;;;;;;;15.67;100.00;96496.00;5052014;28;20307;-78
2023/05/23 07:12:35;;;;;;;;;;;;;;;15.70;100.00;96492.06;5052224;28;19963;-73
2023/05/23 07:15:01;;;;;;;;;;;;;;;15.72;100.00;96484.72;5052238;28;19938;-73
2023/05/23 07:17:29;;;;;;;;;;;;;;;15.77;100.00;96496.16;5035957;28;19965;-73
2023/05/23 07:19:55;;;;;;;;;;;;;;;15.79;100.00;96504.63;5052163;28;19966;-73
2023/05/23 07:22:21;;;;;;;;;;;;;;;15.77;100.00;96501.44;5052066;28;19957;-74
2023/05/23 07:24:46;;;;;;;;;;;;;;;15.74;100.00;96506.41;5052327;28;19968;-73
2023/05/23 07:27:12;;;;;;;;;;;;;;;15.70;100.00;96511.38;5051604;28;19965;-75
2023/05/23 07:29:38;;;;;;;;;;;;;;;15.68;100.00;96510.81;4984549;28;19974;-72
2023/05/23 07:32:04;;;;;;;;;;;;;;;15.66;100.00;96515.56;4984949;28;19967;-70
2023/05/23 07:34:30;;;;;;;;;;;;;;;15.63;100.00;96518.72;5051769;28;20286;-70
2023/05/23 07:36:56;;;;;;;;;;;;;;;15.61;100.00;96521.59;5052152;28;19958;-70
2023/05/23 07:39:23;;;;;;;;;;;;;;;15.61;100.00;96521.59;4984428;28;20001;-71
2023/05/23 07:41:49;;;;;;;;;;;;;;;15.58;100.00;96524.75;4984320;28;19961;-70
2023/05/23 07:44:15;;;;;;;;;;;;;;;15.55;100.00;96533.16;4984848;28;19939;-70
2023/05/23 07:46:41;;;;;;;;;;;;;;;15.51;100.00;96532.03;4985035;28;19969;-76
2023/05/23 07:49:07;;;;;;;;;;;;;;;15.48;100.00;96521.97;5035428;28;19963;-79
2023/05/23 07:51:33;;;;;;;;;;;;;;;15.45;100.00;96533.03;5051412;28;19965;-79
2023/05/23 07:53:59;;;;;;;;;;;;;;;15.38;100.00;96532.44;5052018;28;19960;-78
2023/05/23 07:56:25;;;;;;;;;;;;;;;15.30;100.00;96544.22;4984414;28;19957;-78
2023/05/23 07:58:51;;;;;;;;;;;;;;;15.24;100.00;96529.34;5034338;28;20144;-78
2023/05/23 08:01:17;;;;;;;;;;;;;;;15.22;100.00;96534.91;4984415;28;19958;-77
2023/05/23 08:03:43;;;;;;;;;;;;;;;15.26;100.00;96532.53;5034970;28;20023;-78
2023/05/23 08:06:09;;;;;;;;;;;;;;;15.33;100.00;96527.88;5051320;28;19964;-79
2023/05/23 08:08:35;;;;;;;;;;;;;;;15.45;100.00;96525.09;5035559;28;20160;-79
2023/05/23 08:11:01;;;;;;;;;;;;;;;15.53;100.00;96523.88;5051209;28;19963;-78
2023/05/23 08:13:27;;;;;;;;;;;;;;;15.62;100.00;96523.19;5034331;28;19946;-79
2023/05/23 08:15:53;;;;;;;;;;;;;;;15.73;100.00;96529.44;5035146;28;19968;-78
2023/05/23 08:18:19;;;;;;;;;;;;;;;15.82;100.00;96525.28;5051465;28;19964;-78
2023/05/23 08:20:45;;;;;;;;;;;;;;;15.88;100.00;96535.94;5034824;28;20007;-78
2023/05/23 08:23:11;;;;;;;;;;;;;;;15.85;100.00;96539.06;5051324;28;19964;-70
2023/05/23 08:25:37;;;;;;;;;;;;;;;15.78;100.00;96541.91;5051112;28;19965;-80
2023/05/23 08:28:03;;;;;;;;;;;;;;;15.75;100.00;96542.41;5050985;28;19978;-76
2023/05/23 08:30:29;;;;;;;;;;;;;;;15.70;100.00;96545.75;5050819;28;19973;-77
2023/05/23 08:32:55;;;;;;;;;;;;;;;15.69;100.00;96556.59;4984237;28;20141;-76
2023/05/23 08:35:21;;;;;;;;;;;;;;;15.66;100.00;96555.22;5050926;28;19963;-78
2023/05/23 08:37:47;;;;;;;;;;;;;;;15.63;100.00;96556.50;5050739;28;20007;-76
2023/05/23 08:40:17;;;;;;;;;;;;;;;15.62;100.00;96552.28;5050881;28;20162;-76
2023/05/23 08:42:43;;;;;;;;;;;;;;;15.63;100.00;96558.34;5033834;28;19945;-76
2023/05/23 08:45:09;;;;;;;;;;;;;;;15.63;100.00;96556.50;5050867;28;20005;-76
2023/05/23 08:47:39;;;;;;;;;;;;;;;15.68;100.00;96554.97;4983954;28;20124;-76
2023/05/23 08:50:06;;;;;;;;;;;;;;;15.72;100.00;96564.03;5050245;28;19958;-76
2023/05/23 08:52:34;;;;;;;;;;;;;;;15.75;100.00;96567.00;4983811;28;19965;-77
2023/05/23 08:55:00;;;;;;;;;;;;;;;15.77;100.00;96567.53;4983501;28;19960;-76
2023/05/23 08:57:27;;;;;;;;;;;;;;;15.79;100.00;96565.44;4983771;28;20127;-76
2023/05/23 08:59:53;;;;;;;;;;;;;;;15.78;99.79;96555.13;5050395;28;19959;-76
2023/05/23 09:02:19;;;;;;;;;;;;;;;15.73;98.01;96560.38;5050370;28;19957;-73
2023/05/23 09:04:45;;;;;;;;;;;;;;;15.74;98.60;96570.66;5050343;28;19959;-78
2023/05/23 09:07:11;;;;;;;;;;;;;;;15.76;96.73;96554.56;5033406;28;20176;-78
2023/05/23 09:09:37;;;;;;;;;;;;;;;15.80;98.26;96563.59;4983362;28;19961;-78
2023/05/23 09:12:03;;;;;;;;;;;;;;;15.83;97.99;96571.03;4983748;28;19959;-78
2023/05/23 09:14:30;;;;;;;;;;;;;;;15.88;99.64;96572.94;4983321;28;20042;-78
2023/05/23 09:17:01;;;;;;;;;;;;;;;15.94;97.50;96564.03;5050172;28;20284;-78
2023/05/23 09:19:27;;;;;;;;;;;;;;;15.99;97.62;96572.00;5050096;28;20138;-78
2023/05/23 09:21:53;;;;;;;;;;;;;;;16.06;98.48;96579.72;5033611;28;19980;-79
2023/05/23 09:24:20;;;;;;;;;;;;;;;16.14;95.79;96571.34;5033293;28;20152;-79
2023/05/23 09:26:47;;;;;;;;;;;;;;;16.22;97.00;96576.97;5049760;28;19963;-78
2023/05/23 09:29:13;;;;;;;;;;;;;;;16.35;94.55;96562.53;4983388;28;19968;-79
2023/05/23 09:31:39;;;;;;;;;;;;;;;16.49;94.46;96562.13;5049880;28;19964;-78
2023/05/23 09:34:05;;;;;;;;;;;;;;;16.61;94.74;96578.66;5033043;28;20029;-79
2023/05/23 09:36:33;;;;;;;;;;;;;;;16.78;93.82;96563.41;5033100;28;19966;-78
2023/05/23 09:39:06;;;;;;;;;;;;;;;16.88;91.41;96559.25;5049463;28;19950;-78
2023/05/23 09:41:33;;;;;;;;;;;;;;;16.96;93.76;96561.44;5050169;28;20133;-77
2023/05/23 09:44:03;;;;;;;;;;;;;;;16.99;92.02;96566.25;5049666;28;19975;-76
2023/05/23 09:46:29;;;;;;;;;;;;;;;17.04;92.65;96574.22;4983000;28;19969;-76
2023/05/23 09:48:55;;;;;;;;;;;;;;;17.03;87.31;96535.53;4983235;28;19956;-76
2023/05/23 09:51:21;;;;;;;;;;;;;;;17.04;89.91;96563.59;5049321;28;20040;-79
2023/05/23 09:53:48;;;;;;;;;;;;;;;17.04;90.89;96560.97;4983076;28;19978;-76
2023/05/23 09:56:17;;;;;;;;;;;;;;;17.11;89.91;96564.16;5049408;28;20267;-77
2023/05/23 09:58:49;;;;;;;;;;;;;;;17.13;89.48;96559.41;5048087;28;20846;-79
2023/05/23 10:01:15;;;;;;;;;;;;;;;17.14;88.71;96558.38;5049978;28;19967;-79
2023/05/23 10:03:54;;;;;;;;;;;;;;;17.11;91.01;96573.97;5049588;28;19951;-79
2023/05/23 10:06:25;;;;;;;;;;;;;;;17.02;90.34;96578.97;5049528;28;19967;-79
2023/05/23 10:08:55;;;;;;;;;;;;;;;16.99;90.43;96574.97;4982916;28;20139;-79
2023/05/23 10:11:34;;;;;;;;;;;;;;;16.95;82.92;96523.56;5050080;28;19964;-79
2023/05/23 10:14:01;;;;;;;;;;;;;;;16.91;84.66;96545.53;5049065;28;19980;-76
2023/05/23 10:16:46;;;;;;;;;;;;;;;17.05;85.49;96546.66;4982481;28;20231;-73
2023/05/23 10:19:17;;;;;;;;;;;;;;;17.33;86.44;96555.28;4982707;28;19957;-73
2023/05/23 10:21:48;;;;;;;;;;;;;;;17.41;87.84;96560.09;5037292;28;19948;-73
2023/05/23 10:24:14;;;;;;;;;;;;;;;17.51;85.86;96544.22;5053436;28;20227;-72
2023/05/23 10:26:42;;;;;;;;;;;;;;;17.59;87.23;96554.31;4985982;28;19953;-73
2023/05/23 10:29:08;;;;;;;;;;;;;;;17.70;89.07;96567.63;5053372;28;19981;-73
2023/05/23 10:31:34;;;;;;;;;;;;;;;17.75;84.39;96541.91;5053074;28;20254;-78
2023/05/23 10:34:12;;;;;;;;;;;;;;;17.83;84.17;96538.78;5052998;28;19967;-73
2023/05/23 10:36:50;;;;;;;;;;;;;;;17.85;85.50;96551.81;5045812;28;19968;-79
2023/05/23 10:39:23;;;;;;;;;;;;;;;18.02;81.45;96517.88;5046008;28;19957;-79
2023/05/23 10:41:55;;;;;;;;;;;;;;;18.30;82.88;96520.28;5045921;28;19959;-79
2023/05/23 10:44:30;;;;;;;;;;;;;;;18.56;81.24;96508.59;5046383;28;19940;-79
2023/05/23 10:47:02;;;;;;;;;;;;;;;18.64;80.08;96500.06;5046143;28;19959;-79
2023/05/23 10:49:38;;;;;;;;;;;;;;;18.58;80.43;96510.97;5045725;28;19957;-78
2023/05/23 10:52:06;;;;;;;;;;;;;;;18.53;79.51;96497.69;5029273;28;19971;-73
2023/05/23 10:54:35;;;;;;;;;;;;;;;18.53;81.62;96524.25;5045830;28;19959;-73
2023/05/23 10:57:04;;;;;;;;;;;;;;;18.49;79.00;96505.41;5045948;28;20161;-73
2023/05/23 10:59:30;;;;;;;;;;;;;;;18.49;81.50;96531.94;5045535;28;19976;-73
2023/05/23 11:01:56;;;;;;;;;;;;;;;18.56;80.72;96521.06;5045598;28;20272;-73
2023/05/23 11:04:26;;;;;;;;;;;;;;;18.63;80.63;96525.03;5045221;28;20043;-74
2023/05/23 11:06:53;;;;;;;;;;;;;;;18.72;78.18;96497.94;5035598;28;19976;-73
2023/05/23 11:09:20;;;;;;;;;;;;;;;18.76;77.68;96499.78;5036405;28;19963;-77
2023/05/23 11:11:58;;;;;;;;;;;;;;;18.79;79.21;96496.63;5036236;28;19969;-77
2023/05/23 11:14:29;;;;;;;;;;;;;;;18.75;76.70;96489.41;5036018;28;20236;-77
2023/05/23 11:16:55;;;;;;;;;;;;;;;18.54;78.72;96508.06;5051931;28;19964;-77
2023/05/23 11:19:24;;;;;;;;;;;;;;;18.44;79.54;96516.81;5035343;28;20001;-77
2023/05/23 11:21:58;;;;;;;;;;;;;;;18.44;78.43;96505.41;5052334;28;19963;-77
2023/05/23 11:24:43;;;;;;;;;;;;;;;18.60;78.91;96506.19;5052277;28;19960;-77
2023/05/23 11:27:11;;;;;;;;;;;;;;;19.03;72.52;96451.66;4985225;28;19978;-77
2023/05/23 11:29:37;;;;;;;;;;;;;;;19.40;77.67;96502.78;5052316;28;19958;-71
2023/05/23 11:32:10;;;;;;;;;;;;;;;19.52;75.31;96481.22;5051601;28;20246;-76
2023/05/23 11:34:37;;;;;;;;;;;;;;;19.60;73.38;96462.81;5052141;28;19953;-77
2023/05/23 11:37:03;;;;;;;;;;;;;;;19.92;75.95;96487.41;5052022;28;19970;-77
2023/05/23 11:39:28;;;;;;;;;;;;;;;20.19;76.58;96485.06;5051970;28;19964;-77
2023/05/23 11:41:58;;;;;;;;;;;;;;;20.20;75.10;96483.19;5035185;28;19969;-77
2023/05/23 11:44:24;;;;;;;;;;;;;;;20.16;71.64;96455.53;5051991;28;19958;-77
2023/05/23 11:47:00;;;;;;;;;;;;;;;20.12;73.62;96476.59;4984404;28;20283;-77
2023/05/23 11:49:29;;;;;;;;;;;;;;;20.08;74.02;96480.91;4984852;28;19960;-82
2023/05/23 11:51:56;;;;;;;;;;;;;;;20.07;75.75;96480.09;5052019;28;19974;-82
2023/05/23 11:54:25;;;;;;;;;;;;;;;20.07;72.42;96465.97;5051748;28;20239;-82
2023/05/23 11:56:51;;;;;;;;;;;;;;;20.12;72.85;96465.97;4984872;28;19971;-82
2023/05/23 11:59:17;;;;;;;;;;;;;;;20.05;72.46;96460.13;4984394;28;19962;-82
2023/05/23 12:01:43;;;;;;;;;;;;;;;19.89;72.31;96461.34;4984670;28;19957;-83
2023/05/23 12:04:12;;;;;;;;;;;;;;;19.75;72.00;96458.50;4984472;28;20223;-83
2023/05/23 12:06:40;;;;;;;;;;;;;;;19.72;71.98;96461.69;5034966;28;19969;-71
2023/05/23 12:09:06;;;;;;;;;;;;;;;19.71;71.89;96460.91;4984518;28;19954;-70
2023/05/23 12:11:33;;;;;;;;;;;;;;;19.67;72.08;96467.81;5051589;28;19969;-71
2023/05/23 12:14:05;;;;;;;;;;;;;;;19.65;72.43;96464.63;4984444;28;20250;-70
2023/05/23 12:16:31;;;;;;;;;;;;;;;19.65;73.07;96470.78;5051562;28;19943;-71
2023/05/23 12:18:57;;;;;;;;;;;;;;;19.78;71.04;96452.59;4984386;28;19963;-71
2023/05/23 12:21:39;;;;;;;;;;;;;;;19.90;71.69;96454.94;4984336;28;19958;-71
2023/05/23 12:24:21;;;;;;;;;;;;;;;19.94;66.72;96424.03;5051451;28;19962;-73
2023/05/23 12:26:47;;;;;;;;;;;;;;;19.82;68.41;96430.50;4983862;28;19963;-73
2023/05/23 12:29:13;;;;;;;;;;;;;;;19.87;71.20;96458.94;5050913;28;19970;-72
2023/05/23 12:31:39;;;;;;;;;;;;;;;19.84;72.34;96454.16;5050806;28;19978;-73
2023/05/23 12:34:05;;;;;;;;;;;;;;;19.65;69.02;96440.69;5050766;28;19966;-73
2023/05/23 12:36:37;;;;;;;;;;;;;;;19.47;70.04;96456.22;5047599;28;20121;-73
2023/05/23 12:39:04;;;;;;;;;;;;;;;19.47;70.79;96471.41;5031075;28;20123;-72
2023/05/23 12:41:31;;;;;;;;;;;;;;;19.45;70.75;96455.72;5047568;28;19961;-77